Pernille — 5BNZ2 — position and weather

sailwx.info

Track history (hours):
 
Tides and Currents Weather Stations Pressure Air Temp Water Temp Dewpoint Dewpoint Depression Visibility Wind Speed Wind Dir Waves Ship Positions

Pernille

Last reported at 2015-Mar-04 12:03 UTC. Time now 2015-Mar-06 04:02 UTC.
Position N 53°41' E 004°47'.

Length 82 m; draft 3.9 m.

Type: Cargo ship. MMSI: 212662000.

Date/timePositionNaut miles runAvg speedWind from/ knotsBaromVisibWave heightAir tempDewpointWater temp
2015-Mar-04 12:03N 53°41' E 004°47'7 9.8
2015-Mar-04 11:21N 53°35' E 004°48'1010.1
2015-Mar-04 10:24N 53°25' E 004°44'3010.6
2015-Mar-04 07:33N 52°59' E 004°20'1010.3
2015-Mar-04 06:33N 52°50' E 004°11'1010.5
2015-Mar-04 05:33N 52°42' E 004°00'8311.8
2015-Mar-03 22:31N 51°40' E 002°30'1111.3
2015-Mar-03 21:33N 51°31' E 002°19'1110.6
2015-Mar-03 20:33N 51°23' E 002°10'10 9.8
2015-Mar-03 19:34N 51°14' E 002°03'9 9.3
2015-Mar-03 18:33N 51°08' E 001°51'9 9.0
2015-Mar-03 17:34N 51°02' E 001°41'10 9.6
2015-Mar-03 16:33N 50°55' E 001°31'  
Track history (hours):
 
Tides and Currents Weather Stations Pressure Air Temp Water Temp Dewpoint Dewpoint Depression Visibility Wind Speed Wind Dir Waves Ship Positions

Pernille

Last reported at 2015-Mar-04 12:03 UTC. Time now 2015-Mar-06 04:02 UTC.
Position N 53°41' E 004°47'.

Length 82 m; draft 3.9 m.

Type: Cargo ship. MMSI: 212662000.

Date/timePositionNaut miles runAvg speedWind from/ knotsBaromVisibWave heightAir tempDewpointWater temp
2015-Mar-04 12:03N 53°41' E 004°47'7 9.8
2015-Mar-04 11:21N 53°35' E 004°48'1010.1
2015-Mar-04 10:24N 53°25' E 004°44'3010.6
2015-Mar-04 07:33N 52°59' E 004°20'1010.3
2015-Mar-04 06:33N 52°50' E 004°11'1010.5
2015-Mar-04 05:33N 52°42' E 004°00'8311.8
2015-Mar-03 22:31N 51°40' E 002°30'1111.3
2015-Mar-03 21:33N 51°31' E 002°19'1110.6
2015-Mar-03 20:33N 51°23' E 002°10'10 9.8
2015-Mar-03 19:34N 51°14' E 002°03'9 9.3
2015-Mar-03 18:33N 51°08' E 001°51'9 9.0
2015-Mar-03 17:34N 51°02' E 001°41'10 9.6
2015-Mar-03 16:33N 50°55' E 001°31'  

Dump ship's entire track history